sensor_id;sensor_type;location;lat;lon;timestamp;P1;durP1;ratioP1;P2;durP2;ratioP2
20294;SDS011;10306;52.128;5.208;2023-03-11T00:00:18;4.90;;;1.30;;
20294;SDS011;10306;52.128;5.208;2023-03-11T00:02:46;1.80;;;1.10;;
20294;SDS011;10306;52.128;5.208;2023-03-11T00:05:16;4.10;;;1.00;;
20294;SDS011;10306;52.128;5.208;2023-03-11T00:07:42;4.53;;;1.07;;
20294;SDS011;10306;52.128;5.208;2023-03-11T00:10:12;9.67;;;1.20;;
20294;SDS011;10306;52.128;5.208;2023-03-11T00:12:38;1.30;;;1.10;;
20294;SDS011;10306;52.128;5.208;2023-03-11T00:15:04;1.87;;;0.90;;
20294;SDS011;10306;52.128;5.208;2023-03-11T00:17:30;1.90;;;0.80;;
20294;SDS011;10306;52.128;5.208;2023-03-11T00:19:56;2.43;;;1.30;;
20294;SDS011;10306;52.128;5.208;2023-03-11T00:22:22;2.93;;;1.37;;
20294;SDS011;10306;52.128;5.208;2023-03-11T00:24:48;2.27;;;1.60;;
20294;SDS011;10306;52.128;5.208;2023-03-11T00:27:14;1.27;;;1.17;;
20294;SDS011;10306;52.128;5.208;2023-03-11T00:29:40;1.30;;;1.20;;
20294;SDS011;10306;52.128;5.208;2023-03-11T00:32:06;6.60;;;1.53;;
20294;SDS011;10306;52.128;5.208;2023-03-11T00:34:32;6.90;;;1.37;;
20294;SDS011;10306;52.128;5.208;2023-03-11T00:36:58;3.00;;;1.10;;
20294;SDS011;10306;52.128;5.208;2023-03-11T00:39:24;4.07;;;1.27;;
20294;SDS011;10306;52.128;5.208;2023-03-11T00:41:50;1.37;;;1.30;;
20294;SDS011;10306;52.128;5.208;2023-03-11T00:44:16;1.93;;;1.27;;
20294;SDS011;10306;52.128;5.208;2023-03-11T00:46:42;4.63;;;1.47;;
20294;SDS011;10306;52.128;5.208;2023-03-11T00:49:08;3.00;;;1.27;;
20294;SDS011;10306;52.128;5.208;2023-03-11T00:51:35;3.70;;;1.37;;
20294;SDS011;10306;52.128;5.208;2023-03-11T00:54:01;2.27;;;1.10;;
20294;SDS011;10306;52.128;5.208;2023-03-11T00:56:27;2.93;;;1.30;;
20294;SDS011;10306;52.128;5.208;2023-03-11T00:58:53;2.03;;;1.20;;
20294;SDS011;10306;52.128;5.208;2023-03-11T01:01:19;1.37;;;0.90;;
20294;SDS011;10306;52.128;5.208;2023-03-11T01:03:45;3.97;;;1.57;;
20294;SDS011;10306;52.128;5.208;2023-03-11T01:06:11;2.67;;;1.00;;
20294;SDS011;10306;52.128;5.208;2023-03-11T01:08:38;3.13;;;1.20;;
20294;SDS011;10306;52.128;5.208;2023-03-11T01:11:04;4.43;;;1.30;;
20294;SDS011;10306;52.128;5.208;2023-03-11T01:13:30;3.60;;;1.73;;
20294;SDS011;10306;52.128;5.208;2023-03-11T01:15:56;4.47;;;1.67;;
20294;SDS011;10306;52.128;5.208;2023-03-11T01:18:23;2.30;;;1.53;;
20294;SDS011;10306;52.128;5.208;2023-03-11T01:20:49;2.93;;;1.63;;
20294;SDS011;10306;52.128;5.208;2023-03-11T01:23:15;3.33;;;1.60;;
20294;SDS011;10306;52.128;5.208;2023-03-11T01:25:41;6.17;;;1.63;;
20294;SDS011;10306;52.128;5.208;2023-03-11T01:28:08;1.20;;;1.20;;
20294;SDS011;10306;52.128;5.208;2023-03-11T01:30:35;2.83;;;1.10;;
20294;SDS011;10306;52.128;5.208;2023-03-11T01:33:01;3.00;;;1.40;;
20294;SDS011;10306;52.128;5.208;2023-03-11T01:35:28;3.87;;;1.60;;
20294;SDS011;10306;52.128;5.208;2023-03-11T01:37:54;1.40;;;1.30;;
20294;SDS011;10306;52.128;5.208;2023-03-11T01:40:31;1.70;;;1.60;;
20294;SDS011;10306;52.128;5.208;2023-03-11T01:42:57;3.43;;;1.40;;
20294;SDS011;10306;52.128;5.208;2023-03-11T01:45:28;1.40;;;1.30;;
20294;SDS011;10306;52.128;5.208;2023-03-11T01:47:56;3.83;;;1.20;;
20294;SDS011;10306;52.128;5.208;2023-03-11T01:50:21;2.83;;;1.30;;
20294;SDS011;10306;52.128;5.208;2023-03-11T01:52:48;3.80;;;1.40;;
20294;SDS011;10306;52.128;5.208;2023-03-11T01:55:14;1.27;;;1.23;;
20294;SDS011;10306;52.128;5.208;2023-03-11T01:57:41;4.50;;;1.40;;
20294;SDS011;10306;52.128;5.208;2023-03-11T02:00:11;2.40;;;1.10;;
20294;SDS011;10306;52.128;5.208;2023-03-11T02:02:40;1.60;;;1.13;;
20294;SDS011;10306;52.128;5.208;2023-03-11T02:05:07;1.10;;;1.10;;
20294;SDS011;10306;52.128;5.208;2023-03-11T02:07:33;1.30;;;1.17;;
20294;SDS011;10306;52.128;5.208;2023-03-11T02:10:00;1.13;;;0.90;;
20294;SDS011;10306;52.128;5.208;2023-03-11T02:12:27;1.30;;;1.20;;
20294;SDS011;10306;52.128;5.208;2023-03-11T02:14:54;1.13;;;0.90;;
20294;SDS011;10306;52.128;5.208;2023-03-11T02:17:20;1.00;;;0.90;;
20294;SDS011;10306;52.128;5.208;2023-03-11T02:22:30;3.70;;;1.30;;
20294;SDS011;10306;52.128;5.208;2023-03-11T02:27:45;2.07;;;1.00;;
20294;SDS011;10306;52.128;5.208;2023-03-11T02:30:12;3.00;;;1.23;;
20294;SDS011;10306;52.128;5.208;2023-03-11T02:32:39;2.87;;;1.17;;
20294;SDS011;10306;52.128;5.208;2023-03-11T02:35:05;2.10;;;1.10;;
20294;SDS011;10306;52.128;5.208;2023-03-11T02:37:31;2.60;;;1.30;;
20294;SDS011;10306;52.128;5.208;2023-03-11T02:42:42;1.40;;;1.00;;
20294;SDS011;10306;52.128;5.208;2023-03-11T02:45:09;1.23;;;1.13;;
20294;SDS011;10306;52.128;5.208;2023-03-11T02:47:36;6.80;;;1.10;;
20294;SDS011;10306;52.128;5.208;2023-03-11T02:50:03;0.90;;;0.90;;
20294;SDS011;10306;52.128;5.208;2023-03-11T02:52:30;1.40;;;1.07;;
20294;SDS011;10306;52.128;5.208;2023-03-11T02:54:56;4.33;;;1.17;;
20294;SDS011;10306;52.128;5.208;2023-03-11T02:57:22;1.10;;;1.10;;
20294;SDS011;10306;52.128;5.208;2023-03-11T02:59:48;0.93;;;0.87;;
20294;SDS011;10306;52.128;5.208;2023-03-11T03:02:14;0.90;;;0.90;;
20294;SDS011;10306;52.128;5.208;2023-03-11T03:04:40;2.83;;;0.90;;
20294;SDS011;10306;52.128;5.208;2023-03-11T03:07:06;3.97;;;1.10;;
20294;SDS011;10306;52.128;5.208;2023-03-11T03:09:33;1.40;;;0.90;;
20294;SDS011;10306;52.128;5.208;2023-03-11T03:11:59;1.23;;;0.80;;
20294;SDS011;10306;52.128;5.208;2023-03-11T03:14:25;1.50;;;0.80;;
20294;SDS011;10306;52.128;5.208;2023-03-11T03:16:51;4.90;;;0.73;;
20294;SDS011;10306;52.128;5.208;2023-03-11T03:19:18;1.07;;;0.80;;
20294;SDS011;10306;52.128;5.208;2023-03-11T03:21:44;2.63;;;0.93;;
20294;SDS011;10306;52.128;5.208;2023-03-11T03:24:10;1.97;;;1.00;;
20294;SDS011;10306;52.128;5.208;2023-03-11T03:26:36;3.73;;;1.20;;
20294;SDS011;10306;52.128;5.208;2023-03-11T03:29:03;2.83;;;1.03;;
20294;SDS011;10306;52.128;5.208;2023-03-11T03:31:29;1.00;;;1.00;;
20294;SDS011;10306;52.128;5.208;2023-03-11T03:33:54;2.07;;;1.10;;
20294;SDS011;10306;52.128;5.208;2023-03-11T03:36:20;1.00;;;0.80;;
20294;SDS011;10306;52.128;5.208;2023-03-11T03:38:46;2.77;;;1.13;;
20294;SDS011;10306;52.128;5.208;2023-03-11T03:41:13;3.13;;;1.83;;
20294;SDS011;10306;52.128;5.208;2023-03-11T03:43:39;0.83;;;0.83;;
20294;SDS011;10306;52.128;5.208;2023-03-11T03:46:05;4.83;;;1.17;;
20294;SDS011;10306;52.128;5.208;2023-03-11T03:48:31;1.30;;;1.20;;
20294;SDS011;10306;52.128;5.208;2023-03-11T03:51:05;1.13;;;1.13;;
20294;SDS011;10306;52.128;5.208;2023-03-11T03:53:32;1.77;;;0.90;;
20294;SDS011;10306;52.128;5.208;2023-03-11T03:56:08;1.37;;;1.20;;
20294;SDS011;10306;52.128;5.208;2023-03-11T03:58:35;1.87;;;1.00;;
20294;SDS011;10306;52.128;5.208;2023-03-11T04:01:01;1.00;;;1.00;;
20294;SDS011;10306;52.128;5.208;2023-03-11T04:03:28;3.83;;;1.07;;
20294;SDS011;10306;52.128;5.208;2023-03-11T04:06:03;1.70;;;1.60;;
20294;SDS011;10306;52.128;5.208;2023-03-11T04:08:29;2.90;;;1.07;;
20294;SDS011;10306;52.128;5.208;2023-03-11T04:10:56;3.00;;;1.03;;
20294;SDS011;10306;52.128;5.208;2023-03-11T04:13:22;5.17;;;1.10;;
20294;SDS011;10306;52.128;5.208;2023-03-11T04:15:48;2.27;;;1.00;;
20294;SDS011;10306;52.128;5.208;2023-03-11T04:18:14;3.73;;;1.37;;
20294;SDS011;10306;52.128;5.208;2023-03-11T04:20:40;1.67;;;0.90;;
20294;SDS011;10306;52.128;5.208;2023-03-11T04:23:06;1.80;;;0.93;;
20294;SDS011;10306;52.128;5.208;2023-03-11T04:25:32;1.53;;;1.03;;
20294;SDS011;10306;52.128;5.208;2023-03-11T04:27:58;1.10;;;1.00;;
20294;SDS011;10306;52.128;5.208;2023-03-11T04:30:24;1.30;;;1.23;;
20294;SDS011;10306;52.128;5.208;2023-03-11T04:32:50;6.73;;;1.13;;
20294;SDS011;10306;52.128;5.208;2023-03-11T04:35:16;1.50;;;1.10;;
20294;SDS011;10306;52.128;5.208;2023-03-11T04:37:42;0.97;;;0.97;;
20294;SDS011;10306;52.128;5.208;2023-03-11T04:40:08;6.27;;;1.30;;
20294;SDS011;10306;52.128;5.208;2023-03-11T04:42:35;1.77;;;1.20;;
20294;SDS011;10306;52.128;5.208;2023-03-11T04:45:01;3.40;;;1.10;;
20294;SDS011;10306;52.128;5.208;2023-03-11T04:47:27;1.00;;;0.90;;
20294;SDS011;10306;52.128;5.208;2023-03-11T04:49:53;2.10;;;1.10;;
20294;SDS011;10306;52.128;5.208;2023-03-11T04:52:20;2.13;;;1.00;;
20294;SDS011;10306;52.128;5.208;2023-03-11T04:54:46;1.07;;;1.07;;
20294;SDS011;10306;52.128;5.208;2023-03-11T04:57:12;2.63;;;1.10;;
20294;SDS011;10306;52.128;5.208;2023-03-11T04:59:38;6.07;;;1.30;;
20294;SDS011;10306;52.128;5.208;2023-03-11T05:02:04;3.83;;;1.57;;
20294;SDS011;10306;52.128;5.208;2023-03-11T05:04:30;1.10;;;1.10;;
20294;SDS011;10306;52.128;5.208;2023-03-11T05:06:56;1.13;;;0.90;;
20294;SDS011;10306;52.128;5.208;2023-03-11T05:09:22;1.50;;;1.10;;
20294;SDS011;10306;52.128;5.208;2023-03-11T05:11:48;1.00;;;1.00;;
20294;SDS011;10306;52.128;5.208;2023-03-11T05:14:14;8.10;;;1.43;;
20294;SDS011;10306;52.128;5.208;2023-03-11T05:16:40;4.03;;;1.30;;
20294;SDS011;10306;52.128;5.208;2023-03-11T05:19:06;4.73;;;1.30;;
20294;SDS011;10306;52.128;5.208;2023-03-11T05:21:52;1.47;;;1.20;;
20294;SDS011;10306;52.128;5.208;2023-03-11T05:24:18;1.00;;;1.00;;
20294;SDS011;10306;52.128;5.208;2023-03-11T05:26:44;4.67;;;1.10;;
20294;SDS011;10306;52.128;5.208;2023-03-11T05:29:10;1.13;;;1.13;;
20294;SDS011;10306;52.128;5.208;2023-03-11T05:31:36;2.63;;;1.20;;
20294;SDS011;10306;52.128;5.208;2023-03-11T05:34:02;2.70;;;1.23;;
20294;SDS011;10306;52.128;5.208;2023-03-11T05:36:28;4.40;;;1.40;;
20294;SDS011;10306;52.128;5.208;2023-03-11T05:38:54;7.13;;;1.50;;
20294;SDS011;10306;52.128;5.208;2023-03-11T05:41:20;1.93;;;1.10;;
20294;SDS011;10306;52.128;5.208;2023-03-11T05:43:46;1.00;;;1.00;;
20294;SDS011;10306;52.128;5.208;2023-03-11T05:46:12;1.70;;;1.07;;
20294;SDS011;10306;52.128;5.208;2023-03-11T05:48:38;2.40;;;1.23;;
20294;SDS011;10306;52.128;5.208;2023-03-11T05:51:08;1.20;;;1.13;;
20294;SDS011;10306;52.128;5.208;2023-03-11T05:53:34;0.97;;;0.97;;
20294;SDS011;10306;52.128;5.208;2023-03-11T05:56:00;4.83;;;1.73;;
20294;SDS011;10306;52.128;5.208;2023-03-11T05:58:29;2.80;;;1.33;;
20294;SDS011;10306;52.128;5.208;2023-03-11T06:00:56;1.53;;;1.30;;
20294;SDS011;10306;52.128;5.208;2023-03-11T06:03:23;1.27;;;1.17;;
20294;SDS011;10306;52.128;5.208;2023-03-11T06:05:49;1.17;;;1.10;;
20294;SDS011;10306;52.128;5.208;2023-03-11T06:08:16;1.40;;;1.30;;
20294;SDS011;10306;52.128;5.208;2023-03-11T06:10:42;3.10;;;1.37;;
20294;SDS011;10306;52.128;5.208;2023-03-11T06:13:08;1.50;;;1.40;;
20294;SDS011;10306;52.128;5.208;2023-03-11T06:15:35;1.73;;;1.10;;
20294;SDS011;10306;52.128;5.208;2023-03-11T06:18:01;1.40;;;1.30;;
20294;SDS011;10306;52.128;5.208;2023-03-11T06:20:27;1.17;;;1.17;;
20294;SDS011;10306;52.128;5.208;2023-03-11T06:22:53;3.37;;;1.40;;
20294;SDS011;10306;52.128;5.208;2023-03-11T06:25:19;3.23;;;1.07;;
20294;SDS011;10306;52.128;5.208;2023-03-11T06:27:49;3.80;;;1.30;;
20294;SDS011;10306;52.128;5.208;2023-03-11T06:30:16;7.20;;;1.27;;
20294;SDS011;10306;52.128;5.208;2023-03-11T06:32:43;2.27;;;1.40;;
20294;SDS011;10306;52.128;5.208;2023-03-11T06:35:09;4.13;;;1.40;;
20294;SDS011;10306;52.128;5.208;2023-03-11T06:37:35;5.67;;;1.47;;
20294;SDS011;10306;52.128;5.208;2023-03-11T06:40:02;2.03;;;1.00;;
20294;SDS011;10306;52.128;5.208;2023-03-11T06:42:29;1.53;;;1.10;;
20294;SDS011;10306;52.128;5.208;2023-03-11T06:44:55;3.83;;;1.20;;
20294;SDS011;10306;52.128;5.208;2023-03-11T06:47:21;3.07;;;1.07;;
20294;SDS011;10306;52.128;5.208;2023-03-11T06:49:48;1.17;;;1.17;;
20294;SDS011;10306;52.128;5.208;2023-03-11T06:52:14;1.30;;;1.20;;
20294;SDS011;10306;52.128;5.208;2023-03-11T06:54:40;5.13;;;1.40;;
20294;SDS011;10306;52.128;5.208;2023-03-11T06:57:07;2.37;;;1.40;;
20294;SDS011;10306;52.128;5.208;2023-03-11T06:59:33;1.30;;;1.30;;
20294;SDS011;10306;52.128;5.208;2023-03-11T07:01:59;2.27;;;1.20;;
20294;SDS011;10306;52.128;5.208;2023-03-11T07:04:25;2.60;;;1.37;;
20294;SDS011;10306;52.128;5.208;2023-03-11T07:06:51;3.03;;;1.30;;
20294;SDS011;10306;52.128;5.208;2023-03-11T07:09:17;2.67;;;1.17;;
20294;SDS011;10306;52.128;5.208;2023-03-11T07:11:46;1.20;;;1.10;;
20294;SDS011;10306;52.128;5.208;2023-03-11T07:14:12;1.17;;;1.17;;
20294;SDS011;10306;52.128;5.208;2023-03-11T07:16:38;1.33;;;1.23;;
20294;SDS011;10306;52.128;5.208;2023-03-11T07:19:04;5.23;;;1.60;;
20294;SDS011;10306;52.128;5.208;2023-03-11T07:21:31;2.10;;;1.17;;
20294;SDS011;10306;52.128;5.208;2023-03-11T07:23:58;1.57;;;1.37;;
20294;SDS011;10306;52.128;5.208;2023-03-11T07:26:24;1.77;;;1.60;;
20294;SDS011;10306;52.128;5.208;2023-03-11T07:28:52;2.10;;;1.30;;
20294;SDS011;10306;52.128;5.208;2023-03-11T07:31:19;3.20;;;1.70;;
20294;SDS011;10306;52.128;5.208;2023-03-11T07:33:45;1.23;;;1.10;;
20294;SDS011;10306;52.128;5.208;2023-03-11T07:36:13;1.67;;;1.37;;
20294;SDS011;10306;52.128;5.208;2023-03-11T07:38:39;1.10;;;1.07;;
20294;SDS011;10306;52.128;5.208;2023-03-11T07:41:05;2.00;;;1.50;;
20294;SDS011;10306;52.128;5.208;2023-03-11T07:43:32;5.17;;;1.67;;
20294;SDS011;10306;52.128;5.208;2023-03-11T07:46:16;3.47;;;1.53;;
20294;SDS011;10306;52.128;5.208;2023-03-11T07:48:43;1.23;;;1.23;;
20294;SDS011;10306;52.128;5.208;2023-03-11T07:51:22;2.17;;;1.40;;
20294;SDS011;10306;52.128;5.208;2023-03-11T07:53:48;1.90;;;1.70;;
20294;SDS011;10306;52.128;5.208;2023-03-11T07:56:16;5.10;;;1.77;;
20294;SDS011;10306;52.128;5.208;2023-03-11T07:58:42;1.40;;;1.30;;
20294;SDS011;10306;52.128;5.208;2023-03-11T08:01:09;2.10;;;1.20;;
20294;SDS011;10306;52.128;5.208;2023-03-11T08:03:36;3.10;;;1.10;;
20294;SDS011;10306;52.128;5.208;2023-03-11T08:06:02;2.03;;;1.40;;
20294;SDS011;10306;52.128;5.208;2023-03-11T08:08:28;3.70;;;1.50;;
20294;SDS011;10306;52.128;5.208;2023-03-11T08:10:54;1.53;;;1.27;;
20294;SDS011;10306;52.128;5.208;2023-03-11T08:13:20;1.77;;;1.67;;
20294;SDS011;10306;52.128;5.208;2023-03-11T08:15:46;2.50;;;2.10;;
20294;SDS011;10306;52.128;5.208;2023-03-11T08:18:12;2.53;;;2.07;;
20294;SDS011;10306;52.128;5.208;2023-03-11T08:20:38;2.43;;;1.53;;
20294;SDS011;10306;52.128;5.208;2023-03-11T08:23:04;3.37;;;2.10;;
20294;SDS011;10306;52.128;5.208;2023-03-11T08:25:30;3.27;;;2.13;;
20294;SDS011;10306;52.128;5.208;2023-03-11T08:27:56;4.17;;;2.00;;
20294;SDS011;10306;52.128;5.208;2023-03-11T08:30:22;1.97;;;1.67;;
20294;SDS011;10306;52.128;5.208;2023-03-11T08:32:48;3.30;;;2.07;;
20294;SDS011;10306;52.128;5.208;2023-03-11T08:35:15;2.20;;;2.10;;
20294;SDS011;10306;52.128;5.208;2023-03-11T08:37:41;2.90;;;2.10;;
20294;SDS011;10306;52.128;5.208;2023-03-11T08:40:07;2.03;;;1.80;;
20294;SDS011;10306;52.128;5.208;2023-03-11T08:42:34;1.90;;;1.70;;
20294;SDS011;10306;52.128;5.208;2023-03-11T08:45:00;3.10;;;2.10;;
20294;SDS011;10306;52.128;5.208;2023-03-11T08:47:26;1.60;;;1.50;;
20294;SDS011;10306;52.128;5.208;2023-03-11T08:49:52;3.13;;;1.80;;
20294;SDS011;10306;52.128;5.208;2023-03-11T08:52:18;2.37;;;1.40;;
20294;SDS011;10306;52.128;5.208;2023-03-11T08:54:44;1.70;;;1.30;;
20294;SDS011;10306;52.128;5.208;2023-03-11T08:57:10;4.83;;;1.27;;
20294;SDS011;10306;52.128;5.208;2023-03-11T08:59:36;2.00;;;1.47;;
20294;SDS011;10306;52.128;5.208;2023-03-11T09:02:02;2.33;;;1.40;;
20294;SDS011;10306;52.128;5.208;2023-03-11T09:04:28;1.47;;;1.43;;
20294;SDS011;10306;52.128;5.208;2023-03-11T09:06:54;4.80;;;1.33;;
20294;SDS011;10306;52.128;5.208;2023-03-11T09:09:20;11.83;;;1.80;;
20294;SDS011;10306;52.128;5.208;2023-03-11T09:11:46;2.33;;;2.13;;
20294;SDS011;10306;52.128;5.208;2023-03-11T09:14:13;1.53;;;1.20;;
20294;SDS011;10306;52.128;5.208;2023-03-11T09:16:39;1.43;;;1.33;;
20294;SDS011;10306;52.128;5.208;2023-03-11T09:19:05;1.80;;;1.70;;
20294;SDS011;10306;52.128;5.208;2023-03-11T09:21:35;4.03;;;1.30;;
20294;SDS011;10306;52.128;5.208;2023-03-11T09:24:02;2.27;;;0.97;;
20294;SDS011;10306;52.128;5.208;2023-03-11T09:26:29;2.60;;;0.87;;
20294;SDS011;10306;52.128;5.208;2023-03-11T09:28:55;2.60;;;1.00;;
20294;SDS011;10306;52.128;5.208;2023-03-11T09:31:21;1.93;;;0.90;;
20294;SDS011;10306;52.128;5.208;2023-03-11T09:33:47;2.87;;;1.07;;
20294;SDS011;10306;52.128;5.208;2023-03-11T09:36:15;1.03;;;0.80;;
20294;SDS011;10306;52.128;5.208;2023-03-11T09:38:41;2.30;;;1.00;;
20294;SDS011;10306;52.128;5.208;2023-03-11T09:41:12;1.00;;;0.90;;
20294;SDS011;10306;52.128;5.208;2023-03-11T09:51:49;0.70;;;0.70;;
20294;SDS011;10306;52.128;5.208;2023-03-11T09:54:16;1.40;;;0.90;;
20294;SDS011;10306;52.128;5.208;2023-03-11T09:56:43;2.70;;;0.67;;
20294;SDS011;10306;52.128;5.208;2023-03-11T09:59:29;1.57;;;0.70;;
20294;SDS011;10306;52.128;5.208;2023-03-11T10:01:55;3.00;;;0.70;;
20294;SDS011;10306;52.128;5.208;2023-03-11T10:04:33;2.00;;;0.60;;
20294;SDS011;10306;52.128;5.208;2023-03-11T10:07:05;1.90;;;0.67;;
20294;SDS011;10306;52.128;5.208;2023-03-11T10:09:40;0.47;;;0.47;;
20294;SDS011;10306;52.128;5.208;2023-03-11T10:15:46;1.77;;;0.50;;
20294;SDS011;10306;52.128;5.208;2023-03-11T10:20:10;1.67;;;0.67;;
20294;SDS011;10306;52.128;5.208;2023-03-11T10:25:17;0.67;;;0.63;;
20294;SDS011;10306;52.128;5.208;2023-03-11T10:27:56;1.73;;;0.83;;
20294;SDS011;10306;52.128;5.208;2023-03-11T10:30:26;2.67;;;0.57;;
20294;SDS011;10306;52.128;5.208;2023-03-11T10:32:58;0.63;;;0.63;;
20294;SDS011;10306;52.128;5.208;2023-03-11T10:35:41;3.33;;;0.87;;
20294;SDS011;10306;52.128;5.208;2023-03-11T10:38:17;0.73;;;0.73;;
20294;SDS011;10306;52.128;5.208;2023-03-11T10:40:45;2.10;;;1.10;;
20294;SDS011;10306;52.128;5.208;2023-03-11T10:43:13;1.57;;;1.30;;
20294;SDS011;10306;52.128;5.208;2023-03-11T10:45:41;1.90;;;0.83;;
20294;SDS011;10306;52.128;5.208;2023-03-11T10:48:15;0.80;;;0.80;;
20294;SDS011;10306;52.128;5.208;2023-03-11T10:50:45;1.97;;;0.80;;
20294;SDS011;10306;52.128;5.208;2023-03-11T10:53:16;1.67;;;0.80;;
20294;SDS011;10306;52.128;5.208;2023-03-11T10:55:48;1.07;;;1.00;;
20294;SDS011;10306;52.128;5.208;2023-03-11T10:58:16;2.17;;;0.90;;
20294;SDS011;10306;52.128;5.208;2023-03-11T11:00:42;3.10;;;1.07;;
20294;SDS011;10306;52.128;5.208;2023-03-11T11:03:13;1.77;;;0.90;;
20294;SDS011;10306;52.128;5.208;2023-03-11T11:05:41;1.87;;;1.20;;
20294;SDS011;10306;52.128;5.208;2023-03-11T11:08:14;4.73;;;1.20;;
20294;SDS011;10306;52.128;5.208;2023-03-11T11:10:51;1.40;;;0.73;;
20294;SDS011;10306;52.128;5.208;2023-03-11T11:13:18;2.93;;;0.90;;
20294;SDS011;10306;52.128;5.208;2023-03-11T11:15:52;2.93;;;0.70;;
20294;SDS011;10306;52.128;5.208;2023-03-11T11:23:48;2.63;;;1.13;;
20294;SDS011;10306;52.128;5.208;2023-03-11T11:26:16;0.90;;;0.60;;
20294;SDS011;10306;52.128;5.208;2023-03-11T11:28:42;4.53;;;0.83;;
20294;SDS011;10306;52.128;5.208;2023-03-11T11:31:19;1.00;;;0.80;;
20294;SDS011;10306;52.128;5.208;2023-03-11T11:33:49;1.83;;;0.80;;
20294;SDS011;10306;52.128;5.208;2023-03-11T11:36:15;1.87;;;0.90;;
20294;SDS011;10306;52.128;5.208;2023-03-11T11:38:42;3.03;;;1.03;;
20294;SDS011;10306;52.128;5.208;2023-03-11T11:41:12;1.03;;;0.80;;
20294;SDS011;10306;52.128;5.208;2023-03-11T11:44:03;3.60;;;1.70;;
20294;SDS011;10306;52.128;5.208;2023-03-11T11:49:05;0.73;;;0.60;;
20294;SDS011;10306;52.128;5.208;2023-03-11T11:54:26;0.70;;;0.70;;
20294;SDS011;10306;52.128;5.208;2023-03-11T11:56:54;0.67;;;0.67;;
20294;SDS011;10306;52.128;5.208;2023-03-11T11:59:21;0.63;;;0.63;;
20294;SDS011;10306;52.128;5.208;2023-03-11T12:04:37;2.60;;;0.90;;
20294;SDS011;10306;52.128;5.208;2023-03-11T12:07:26;1.50;;;0.70;;
20294;SDS011;10306;52.128;5.208;2023-03-11T12:12:41;4.73;;;0.90;;
20294;SDS011;10306;52.128;5.208;2023-03-11T12:15:26;2.43;;;1.33;;
20294;SDS011;10306;52.128;5.208;2023-03-11T12:17:53;0.80;;;0.80;;
20294;SDS011;10306;52.128;5.208;2023-03-11T12:28:13;1.80;;;0.60;;
20294;SDS011;10306;52.128;5.208;2023-03-11T12:30:42;3.73;;;1.00;;
20294;SDS011;10306;52.128;5.208;2023-03-11T12:33:16;1.10;;;1.07;;
20294;SDS011;10306;52.128;5.208;2023-03-11T12:35:47;1.70;;;0.93;;
20294;SDS011;10306;52.128;5.208;2023-03-11T12:38:15;3.30;;;0.93;;
20294;SDS011;10306;52.128;5.208;2023-03-11T12:40:58;1.40;;;0.80;;
20294;SDS011;10306;52.128;5.208;2023-03-11T12:50:57;0.60;;;0.50;;
20294;SDS011;10306;52.128;5.208;2023-03-11T12:53:42;4.07;;;0.90;;
20294;SDS011;10306;52.128;5.208;2023-03-11T12:58:38;1.50;;;0.70;;
20294;SDS011;10306;52.128;5.208;2023-03-11T13:04:00;0.60;;;0.60;;
20294;SDS011;10306;52.128;5.208;2023-03-11T13:09:30;1.07;;;0.70;;
20294;SDS011;10306;52.128;5.208;2023-03-11T13:11:56;1.20;;;0.57;;
20294;SDS011;10306;52.128;5.208;2023-03-11T13:14:26;0.70;;;0.70;;
20294;SDS011;10306;52.128;5.208;2023-03-11T13:16:55;1.00;;;0.80;;
20294;SDS011;10306;52.128;5.208;2023-03-11T13:21:51;0.90;;;0.70;;
20294;SDS011;10306;52.128;5.208;2023-03-11T13:26:49;1.40;;;0.67;;
20294;SDS011;10306;52.128;5.208;2023-03-11T13:29:22;0.80;;;0.80;;
20294;SDS011;10306;52.128;5.208;2023-03-11T13:34:27;2.10;;;0.60;;
20294;SDS011;10306;52.128;5.208;2023-03-11T13:37:08;0.67;;;0.50;;
20294;SDS011;10306;52.128;5.208;2023-03-11T13:39:44;1.27;;;0.70;;
20294;SDS011;10306;52.128;5.208;2023-03-11T13:44:53;4.23;;;0.60;;
20294;SDS011;10306;52.128;5.208;2023-03-11T13:47:19;4.33;;;0.87;;
20294;SDS011;10306;52.128;5.208;2023-03-11T13:50:04;1.07;;;0.70;;
20294;SDS011;10306;52.128;5.208;2023-03-11T13:52:32;0.50;;;0.50;;
20294;SDS011;10306;52.128;5.208;2023-03-11T13:55:41;0.60;;;0.60;;
20294;SDS011;10306;52.128;5.208;2023-03-11T13:57:49;2.10;;;0.80;;
20294;SDS011;10306;52.128;5.208;2023-03-11T14:00:17;1.03;;;0.93;;
20294;SDS011;10306;52.128;5.208;2023-03-11T14:02:52;0.77;;;0.77;;
20294;SDS011;10306;52.128;5.208;2023-03-11T14:05:22;0.80;;;0.80;;
20294;SDS011;10306;52.128;5.208;2023-03-11T14:07:50;1.93;;;0.80;;
20294;SDS011;10306;52.128;5.208;2023-03-11T14:10:21;5.23;;;1.00;;
20294;SDS011;10306;52.128;5.208;2023-03-11T14:12:47;3.77;;;0.80;;
20294;SDS011;10306;52.128;5.208;2023-03-11T14:15:15;1.47;;;0.70;;
20294;SDS011;10306;52.128;5.208;2023-03-11T14:17:43;0.87;;;0.70;;
20294;SDS011;10306;52.128;5.208;2023-03-11T14:20:11;1.33;;;0.70;;
20294;SDS011;10306;52.128;5.208;2023-03-11T14:22:39;3.00;;;0.80;;
20294;SDS011;10306;52.128;5.208;2023-03-11T14:25:06;1.27;;;0.67;;
20294;SDS011;10306;52.128;5.208;2023-03-11T14:27:33;0.90;;;0.90;;
20294;SDS011;10306;52.128;5.208;2023-03-11T14:29:59;4.73;;;1.10;;
20294;SDS011;10306;52.128;5.208;2023-03-11T14:32:26;1.13;;;0.90;;
20294;SDS011;10306;52.128;5.208;2023-03-11T14:34:53;1.83;;;1.07;;
20294;SDS011;10306;52.128;5.208;2023-03-11T14:39:58;1.33;;;0.87;;
20294;SDS011;10306;52.128;5.208;2023-03-11T14:42:28;2.13;;;0.90;;
20294;SDS011;10306;52.128;5.208;2023-03-11T14:45:03;1.13;;;1.03;;
20294;SDS011;10306;52.128;5.208;2023-03-11T14:49:56;3.27;;;1.30;;
20294;SDS011;10306;52.128;5.208;2023-03-11T14:52:30;3.07;;;1.10;;
20294;SDS011;10306;52.128;5.208;2023-03-11T14:54:58;1.47;;;1.37;;
20294;SDS011;10306;52.128;5.208;2023-03-11T15:00:32;1.17;;;0.80;;
20294;SDS011;10306;52.128;5.208;2023-03-11T15:03:03;0.80;;;0.80;;
20294;SDS011;10306;52.128;5.208;2023-03-11T15:06:11;0.70;;;0.70;;
20294;SDS011;10306;52.128;5.208;2023-03-11T15:08:29;0.73;;;0.73;;
20294;SDS011;10306;52.128;5.208;2023-03-11T15:10:59;2.03;;;1.00;;
20294;SDS011;10306;52.128;5.208;2023-03-11T15:13:25;2.00;;;1.10;;
20294;SDS011;10306;52.128;5.208;2023-03-11T15:15:55;3.00;;;1.13;;
20294;SDS011;10306;52.128;5.208;2023-03-11T15:18:23;1.33;;;1.00;;
20294;SDS011;10306;52.128;5.208;2023-03-11T15:21:34;2.23;;;0.80;;
20294;SDS011;10306;52.128;5.208;2023-03-11T15:23:35;2.17;;;0.80;;
20294;SDS011;10306;52.128;5.208;2023-03-11T15:26:01;2.87;;;0.93;;
20294;SDS011;10306;52.128;5.208;2023-03-11T15:28:29;2.13;;;0.97;;
20294;SDS011;10306;52.128;5.208;2023-03-11T15:33:40;0.90;;;0.90;;
20294;SDS011;10306;52.128;5.208;2023-03-11T15:36:26;0.80;;;0.80;;
20294;SDS011;10306;52.128;5.208;2023-03-11T15:41:33;4.07;;;0.60;;
20294;SDS011;10306;52.128;5.208;2023-03-11T15:43:59;1.93;;;1.40;;
20294;SDS011;10306;52.128;5.208;2023-03-11T15:46:28;1.50;;;0.83;;
20294;SDS011;10306;52.128;5.208;2023-03-11T15:48:53;0.80;;;0.80;;
20294;SDS011;10306;52.128;5.208;2023-03-11T15:51:20;1.00;;;0.90;;
20294;SDS011;10306;52.128;5.208;2023-03-11T15:53:46;0.83;;;0.70;;
20294;SDS011;10306;52.128;5.208;2023-03-11T15:56:14;2.17;;;1.50;;
20294;SDS011;10306;52.128;5.208;2023-03-11T15:58:42;1.20;;;1.10;;
20294;SDS011;10306;52.128;5.208;2023-03-11T16:01:08;2.23;;;0.83;;
20294;SDS011;10306;52.128;5.208;2023-03-11T16:03:34;0.90;;;0.90;;
20294;SDS011;10306;52.128;5.208;2023-03-11T16:06:02;1.63;;;0.90;;
20294;SDS011;10306;52.128;5.208;2023-03-11T16:08:28;2.53;;;1.57;;
20294;SDS011;10306;52.128;5.208;2023-03-11T16:10:54;1.23;;;1.00;;
20294;SDS011;10306;52.128;5.208;2023-03-11T16:13:21;1.33;;;1.10;;
20294;SDS011;10306;52.128;5.208;2023-03-11T16:15:47;2.37;;;1.20;;
20294;SDS011;10306;52.128;5.208;2023-03-11T16:18:13;0.87;;;0.87;;
20294;SDS011;10306;52.128;5.208;2023-03-11T16:20:41;0.60;;;0.60;;